Weather at Josep Tarradellas Barcelona-El Prat Airport

Public forecast

Using degrees Celsius for public forecast. Weather courtesy of forecast.io.

Current aviation weather report (METAR) for Josep Tarradellas Barcelona-El Prat Airport

Retrieved 2021/10/22 06:30 UTC (0 seconds ago):

LEBL 220630Z 34008G21KT 280V020 9999 FEW030 SCT045 15/13 Q1018 NOSIG

Aviation forecast (TAF) for Josep Tarradellas Barcelona-El Prat Airport

Retrieved 2021/10/22 06:27 UTC (0 seconds ago):

TAF LEBL 220500Z 2206/2306 34006KT 9999 FEW020 TX22/2212Z TN15/2206Z PROB40 TEMPO 2206/2208 4000 SHRA FEW020TCU BECMG 2209/2211 22005KT